Time;durP1;ratioP1;P1;durP2;ratioP2;P2;SDS_P1;SDS_P2;PMS_P1;PMS_P2;Temp;Humidity;BMP_temperature;BMP_pressure;BME280_temperature;BME280_humidity;BME280_pressure;Samples;Min_cycle;Max_cycle;Signal;HPM_P1;HPM_P2
2022/04/30 00:00:12;;;;;;;13.65;8.68;;;6.50;99.90;;;;;;4994335;28;20118;-69
2022/04/30 00:02:39;;;;;;;13.02;8.15;;;6.50;99.90;;;;;;4993372;28;20358;-71
2022/04/30 00:05:05;;;;;;;12.35;8.38;;;6.40;99.90;;;;;;4993485;28;20046;-70
2022/04/30 00:07:32;;;;;;;11.65;8.02;;;6.50;99.90;;;;;;4958804;28;20372;-70
2022/04/30 00:09:57;;;;;;;15.68;8.30;;;6.50;99.90;;;;;;4958027;28;20035;-69
2022/04/30 00:12:25;;;;;;;12.55;8.90;;;6.40;99.90;;;;;;4957872;28;20034;-69
2022/04/30 00:14:51;;;;;;;12.23;8.45;;;6.50;99.90;;;;;;4974079;28;20045;-69
2022/04/30 00:17:17;;;;;;;13.38;8.40;;;6.40;99.90;;;;;;4990701;28;20096;-70
2022/04/30 00:19:43;;;;;;;12.60;7.70;;;6.40;99.90;;;;;;4993328;28;20046;-70
2022/04/30 00:22:09;;;;;;;12.60;7.95;;;6.50;99.90;;;;;;4977526;28;20069;-70
2022/04/30 00:24:41;;;;;;;13.45;8.55;;;6.50;99.90;;;;;;4993490;28;20490;-69
2022/04/30 00:27:06;;;;;;;14.10;8.00;;;6.50;99.90;;;;;;4973306;28;20049;-69
2022/04/30 00:29:32;;;;;;;12.20;7.55;;;6.40;99.90;;;;;;4973949;28;20101;-69
2022/04/30 00:32:02;;;;;;;13.13;8.18;;;6.40;99.90;;;;;;4973978;28;20452;-71
2022/04/30 00:34:30;;;;;;;12.10;8.20;;;6.50;99.90;;;;;;4974175;28;20141;-71
2022/04/30 00:36:56;;;;;;;14.77;8.15;;;6.40;99.90;;;;;;4974182;28;20054;-70
2022/04/30 00:39:22;;;;;;;11.25;7.75;;;6.50;99.90;;;;;;4973811;28;20491;-71
2022/04/30 00:41:49;;;;;;;13.40;8.57;;;6.50;99.90;;;;;;4973720;28;20039;-70
2022/04/30 00:44:19;;;;;;;14.05;8.77;;;6.50;99.90;;;;;;4973876;28;20192;-69
2022/04/30 00:46:45;;;;;;;14.75;8.25;;;6.40;99.90;;;;;;4993177;28;20097;-71
2022/04/30 00:49:11;;;;;;;13.48;7.93;;;6.40;99.90;;;;;;4992955;28;20112;-71
2022/04/30 00:51:39;;;;;;;14.25;8.15;;;6.30;99.90;;;;;;4993317;28;20424;-69
2022/04/30 00:54:06;;;;;;;11.85;8.63;;;6.30;99.90;;;;;;4992914;28;20387;-69
2022/04/30 00:56:43;;;;;;;13.98;8.27;;;6.30;99.90;;;;;;4966763;28;20050;-70
2022/04/30 00:59:11;;;;;;;12.48;8.50;;;6.30;99.90;;;;;;4993567;28;20137;-71
2022/04/30 01:01:37;;;;;;;13.27;8.40;;;6.30;99.90;;;;;;4976854;28;20043;-69
2022/04/30 01:04:07;;;;;;;13.98;8.02;;;6.30;99.90;;;;;;4993362;28;20046;-69
2022/04/30 01:06:47;;;;;;;14.65;7.75;;;6.30;99.90;;;;;;4954935;28;20065;-70
2022/04/30 01:09:12;;;;;;;12.32;7.75;;;6.30;99.90;;;;;;4980218;28;20080;-69
2022/04/30 01:11:38;;;;;;;13.90;8.20;;;6.30;99.90;;;;;;4996491;28;20070;-69
2022/04/30 01:14:04;;;;;;;13.77;7.78;;;6.30;99.90;;;;;;4996387;28;20125;-69
2022/04/30 01:16:31;;;;;;;11.85;7.75;;;6.20;99.90;;;;;;4986570;28;20043;-69
2022/04/30 01:18:57;;;;;;;13.10;8.88;;;6.20;99.90;;;;;;4977031;28;20372;-70
2022/04/30 01:21:24;;;;;;;14.50;8.43;;;6.20;99.90;;;;;;4977160;28;20070;-69
2022/04/30 01:23:50;;;;;;;11.70;7.93;;;6.20;99.90;;;;;;4976802;28;20067;-71
2022/04/30 01:26:20;;;;;;;14.13;8.27;;;6.10;99.90;;;;;;4983339;28;20034;-70
2022/04/30 01:28:46;;;;;;;12.50;8.38;;;6.10;99.90;;;;;;4995995;28;20129;-69
2022/04/30 01:39:28;;;;;;;11.90;8.02;;;5.90;99.90;;;;;;4976527;28;20046;-70
2022/04/30 01:41:54;;;;;;;14.20;8.13;;;5.90;99.90;;;;;;4976564;28;20051;-70
2022/04/30 01:44:20;;;;;;;12.02;8.52;;;5.80;99.90;;;;;;4976938;28;20038;-71
2022/04/30 01:46:47;;;;;;;12.85;8.68;;;5.80;99.90;;;;;;4986268;28;20376;-70
2022/04/30 01:49:16;;;;;;;14.45;8.38;;;5.80;99.90;;;;;;5012228;28;20093;-70
2022/04/30 01:51:51;;;;;;;13.07;7.88;;;5.80;99.90;;;;;;4979801;28;20050;-70
2022/04/30 01:54:17;;;;;;;13.65;8.00;;;5.80;99.90;;;;;;4995446;28;20045;-70
2022/04/30 01:56:44;;;;;;;17.60;8.82;;;5.80;99.90;;;;;;5002697;28;20455;-70
2022/04/30 01:59:09;;;;;;;14.85;8.27;;;5.80;99.90;;;;;;4995784;28;20038;-71
2022/04/30 02:01:37;;;;;;;12.10;8.25;;;5.80;99.90;;;;;;4995427;28;20341;-70
2022/04/30 02:04:04;;;;;;;12.43;8.15;;;5.80;99.90;;;;;;4995423;28;20042;-70
2022/04/30 02:06:30;;;;;;;12.60;8.55;;;5.70;99.90;;;;;;4990928;28;20054;-71
2022/04/30 02:08:56;;;;;;;13.10;7.97;;;5.70;99.90;;;;;;4974893;28;20093;-70
2022/04/30 02:11:23;;;;;;;13.73;7.95;;;5.70;99.90;;;;;;4975973;28;20038;-69
2022/04/30 02:13:53;;;;;;;13.88;8.15;;;5.80;99.90;;;;;;4975992;28;20070;-70
2022/04/30 02:16:21;;;;;;;13.68;8.00;;;5.70;99.90;;;;;;4982686;28;20407;-69
2022/04/30 02:18:52;;;;;;;14.93;8.30;;;5.70;99.90;;;;;;4995012;28;20530;-70
2022/04/30 02:21:20;;;;;;;14.23;8.65;;;5.70;99.90;;;;;;5011628;28;20050;-71
2022/04/30 02:23:51;;;;;;;13.18;8.52;;;5.70;99.90;;;;;;4995257;28;20090;-70
2022/04/30 02:26:17;;;;;;;14.15;8.02;;;5.70;99.90;;;;;;4998163;28;20463;-69
2022/04/30 02:28:44;;;;;;;16.17;8.80;;;5.70;99.90;;;;;;4994724;28;20100;-70
2022/04/30 02:31:23;;;;;;;15.13;8.50;;;5.70;99.90;;;;;;4994935;28;20444;-71
2022/04/30 02:33:49;;;;;;;17.48;8.35;;;5.70;99.90;;;;;;4994931;28;20034;-70
2022/04/30 02:36:15;;;;;;;16.27;9.60;;;5.70;99.90;;;;;;4990340;28;20503;-70
2022/04/30 02:38:42;;;;;;;15.82;9.27;;;5.60;99.90;;;;;;4991883;28;20060;-71
2022/04/30 02:41:08;;;;;;;15.25;9.48;;;5.70;99.90;;;;;;4975446;28;20054;-69
2022/04/30 02:43:33;;;;;;;17.30;9.88;;;5.70;99.90;;;;;;4975353;28;20388;-70
2022/04/30 02:45:59;;;;;;;15.82;10.02;;;5.60;99.90;;;;;;4981673;28;20053;-70
2022/04/30 02:48:25;;;;;;;14.20;9.30;;;5.60;99.90;;;;;;4997763;28;20133;-70
2022/04/30 02:50:53;;;;;;;15.50;10.30;;;5.60;99.90;;;;;;4998033;28;20494;-70
2022/04/30 02:53:19;;;;;;;13.23;9.55;;;5.60;99.90;;;;;;4981555;28;20044;-69
2022/04/30 02:55:44;;;;;;;18.63;10.02;;;5.60;99.90;;;;;;4994764;28;20042;-69
2022/04/30 03:00:54;;;;;;;14.88;9.68;;;5.60;99.90;;;;;;4978204;28;20057;-70
2022/04/30 03:03:21;;;;;;;17.92;9.68;;;5.60;99.90;;;;;;4978443;28;20046;-71
2022/04/30 03:05:51;;;;;;;15.68;9.15;;;5.60;99.90;;;;;;4964115;28;20050;-70
2022/04/30 03:08:22;;;;;;;15.43;9.00;;;5.60;99.90;;;;;;4997366;28;20493;-70
2022/04/30 03:10:50;;;;;;;14.20;9.20;;;5.50;99.90;;;;;;4981311;28;20529;-70
2022/04/30 03:13:20;;;;;;;17.33;9.98;;;5.60;99.90;;;;;;4997888;28;20034;-70
2022/04/30 03:15:47;;;;;;;14.57;9.02;;;5.60;99.90;;;;;;4994574;28;20042;-70
2022/04/30 03:23:32;;;;;;;13.45;9.23;;;5.60;99.90;;;;;;4978118;28;20372;-70
2022/04/30 03:25:58;;;;;;;14.55;9.60;;;5.60;99.90;;;;;;4981281;28;20037;-70
2022/04/30 03:28:24;;;;;;;12.60;9.40;;;5.60;99.90;;;;;;4997134;28;20111;-70
2022/04/30 03:30:50;;;;;;;13.07;9.73;;;5.60;99.90;;;;;;4997087;28;20042;-71
2022/04/30 03:33:16;;;;;;;14.80;9.10;;;5.60;99.90;;;;;;4996874;28;20037;-70
2022/04/30 03:35:42;;;;;;;15.45;9.10;;;5.60;99.90;;;;;;4978816;28;20038;-71
2022/04/30 03:38:08;;;;;;;14.95;9.98;;;5.60;99.90;;;;;;4977609;28;20104;-70
2022/04/30 03:40:35;;;;;;;13.00;8.63;;;5.60;99.90;;;;;;4977642;28;20100;-70
2022/04/30 03:43:02;;;;;;;15.32;9.75;;;5.70;99.90;;;;;;4977494;28;20471;-70
2022/04/30 03:45:28;;;;;;;15.30;9.15;;;5.70;99.90;;;;;;4961458;28;20092;-70
2022/04/30 03:47:54;;;;;;;17.98;9.60;;;5.70;99.90;;;;;;4996165;28;20546;-70
2022/04/30 03:50:19;;;;;;;12.93;8.73;;;5.70;99.90;;;;;;4997164;28;20125;-70
2022/04/30 03:52:45;;;;;;;15.50;10.05;;;5.70;99.90;;;;;;4981100;28;20370;-69
2022/04/30 03:55:11;;;;;;;12.23;9.80;;;5.70;99.90;;;;;;4980618;28;20328;-70
2022/04/30 03:57:36;;;;;;;14.90;10.10;;;5.70;99.90;;;;;;4996691;28;20045;-70
2022/04/30 04:00:04;;;;;;;12.10;9.65;;;5.70;99.90;;;;;;4997135;28;20077;-70
2022/04/30 04:02:30;;;;;;;14.88;9.68;;;5.70;99.90;;;;;;4980472;28;20050;-71
2022/04/30 04:04:56;;;;;;;15.98;10.02;;;5.80;99.90;;;;;;4996793;28;20455;-70
2022/04/30 04:07:22;;;;;;;15.52;10.57;;;5.80;99.90;;;;;;4988429;28;20065;-70
2022/04/30 04:09:48;;;;;;;14.20;9.95;;;5.80;99.90;;;;;;5009971;28;20034;-69
2022/04/30 04:12:14;;;;;;;14.88;10.45;;;5.80;99.90;;;;;;4993726;28;20420;-71
2022/04/30 04:17:39;;;;;;;15.80;9.63;;;5.80;99.90;;;;;;4993500;28;20379;-71
2022/04/30 04:20:07;;;;;;;16.15;9.90;;;5.80;99.90;;;;;;4977239;28;20049;-71
2022/04/30 04:22:33;;;;;;;13.65;9.88;;;5.80;99.90;;;;;;4976975;28;20050;-70
2022/04/30 04:27:43;;;;;;;15.15;10.40;;;5.90;99.90;;;;;;4994327;28;20054;-69
2022/04/30 04:30:09;;;;;;;14.65;9.85;;;5.90;99.90;;;;;;4996920;28;20060;-68
2022/04/30 04:32:35;;;;;;;13.73;9.45;;;5.90;99.90;;;;;;4997534;28;20384;-69
2022/04/30 04:35:00;;;;;;;14.85;10.02;;;5.90;99.90;;;;;;5000048;28;20061;-69
2022/04/30 04:37:27;;;;;;;13.00;9.85;;;5.90;99.90;;;;;;4985040;28;20192;-69
2022/04/30 04:39:54;;;;;;;13.63;9.57;;;6.00;99.90;;;;;;4964827;28;20080;-70
2022/04/30 04:42:19;;;;;;;16.17;10.40;;;6.00;99.90;;;;;;4980929;28;20042;-68
2022/04/30 04:44:46;;;;;;;12.07;9.60;;;6.10;99.90;;;;;;4980862;28;20053;-69
2022/04/30 04:47:12;;;;;;;13.20;10.23;;;6.10;99.90;;;;;;4989454;28;20050;-69
2022/04/30 04:49:38;;;;;;;14.35;10.13;;;6.20;99.90;;;;;;5013559;28;20488;-69
2022/04/30 04:52:03;;;;;;;13.30;10.05;;;6.20;99.90;;;;;;4980748;28;20178;-68
2022/04/30 04:54:30;;;;;;;13.73;9.80;;;6.20;99.90;;;;;;4996820;28;20043;-68
2022/04/30 04:56:55;;;;;;;16.92;10.00;;;6.30;99.90;;;;;;4985438;28;20043;-69
2022/04/30 04:59:21;;;;;;;14.85;10.60;;;6.40;99.90;;;;;;4977348;28;20038;-69
2022/04/30 05:01:48;;;;;;;14.27;9.70;;;6.50;99.90;;;;;;4961127;28;20034;-69
2022/04/30 05:04:14;;;;;;;15.77;10.57;;;6.60;99.90;;;;;;4977161;28;20054;-69
2022/04/30 05:06:39;;;;;;;15.52;10.73;;;6.70;99.90;;;;;;4986424;28;20050;-71
2022/04/30 05:09:05;;;;;;;15.27;9.48;;;6.80;99.90;;;;;;4996740;28;20038;-69
2022/04/30 05:11:31;;;;;;;14.07;9.93;;;6.90;99.90;;;;;;4980262;28;20443;-69
2022/04/30 05:13:56;;;;;;;13.80;9.52;;;7.00;99.90;;;;;;4980180;28;20073;-69
2022/04/30 05:16:22;;;;;;;14.00;9.70;;;7.00;99.90;;;;;;4995513;28;20432;-70
2022/04/30 05:18:49;;;;;;;13.68;9.68;;;7.00;99.90;;;;;;4996142;28;20443;-69
2022/04/30 05:21:14;;;;;;;13.20;9.82;;;7.00;99.90;;;;;;4979125;28;20054;-69
2022/04/30 05:23:40;;;;;;;14.75;9.93;;;7.00;99.90;;;;;;4979190;28;20037;-69
2022/04/30 05:26:06;;;;;;;14.07;9.25;;;7.10;99.90;;;;;;4993373;28;20035;-69
2022/04/30 05:28:37;;;;;;;12.45;9.25;;;7.10;99.90;;;;;;4995827;28;20121;-70
2022/04/30 05:31:05;;;;;;;15.50;9.70;;;7.20;99.90;;;;;;4995009;28;20034;-69
2022/04/30 05:33:37;;;;;;;14.43;8.85;;;7.20;99.90;;;;;;4995079;28;20042;-70
2022/04/30 05:36:03;;;;;;;13.73;9.38;;;7.30;99.90;;;;;;4994154;28;20038;-70
2022/04/30 05:38:29;;;;;;;15.18;9.48;;;7.40;99.90;;;;;;4979010;28;20049;-70
2022/04/30 05:40:56;;;;;;;12.02;9.25;;;7.50;99.90;;;;;;4995785;28;20045;-69
2022/04/30 05:43:22;;;;;;;16.02;9.45;;;7.50;99.90;;;;;;4979335;28;20046;-70
2022/04/30 05:45:47;;;;;;;13.15;8.93;;;7.60;99.90;;;;;;4994422;28;20057;-69
2022/04/30 05:48:13;;;;;;;11.23;9.13;;;7.80;99.90;;;;;;5011994;28;20437;-70
2022/04/30 05:50:39;;;;;;;11.27;8.85;;;7.80;99.90;;;;;;5014909;28;20120;-69
2022/04/30 05:53:05;;;;;;;13.00;8.95;;;7.80;99.90;;;;;;5014575;28;20053;-69
2022/04/30 05:55:31;;;;;;;12.02;9.10;;;8.00;99.90;;;;;;4998471;28;20044;-70
2022/04/30 05:57:57;;;;;;;12.73;9.05;;;8.20;99.90;;;;;;5009197;28;20084;-69
2022/04/30 06:00:24;;;;;;;10.65;8.50;;;8.30;99.90;;;;;;5014620;28;20411;-70
2022/04/30 06:02:54;;;;;;;10.95;8.52;;;8.40;99.90;;;;;;5011259;28;20037;-73
2022/04/30 06:05:21;;;;;;;12.73;8.35;;;8.40;99.90;;;;;;5015654;28;20034;-70
2022/04/30 06:07:49;;;;;;;13.80;9.05;;;8.40;99.90;;;;;;5007398;28;20046;-70
2022/04/30 06:10:15;;;;;;;14.35;8.00;;;8.50;99.90;;;;;;5014581;28;20121;-70
2022/04/30 06:12:40;;;;;;;13.70;8.30;;;8.50;99.90;;;;;;5014513;28;20141;-70
2022/04/30 06:15:06;;;;;;;12.15;7.80;;;8.60;99.90;;;;;;5014482;28;20092;-70
2022/04/30 06:17:33;;;;;;;12.93;7.53;;;8.70;99.90;;;;;;5007653;28;20064;-70
2022/04/30 06:20:00;;;;;;;12.68;7.78;;;8.60;99.90;;;;;;4998489;28;20049;-73
2022/04/30 06:22:25;;;;;;;11.23;7.50;;;8.60;99.90;;;;;;5015696;28;20096;-71
2022/04/30 06:24:51;;;;;;;10.23;7.13;;;8.70;99.90;;;;;;5015624;28;20041;-72
2022/04/30 06:27:17;;;;;;;12.45;7.43;;;8.60;99.90;;;;;;5002365;28;20043;-70
2022/04/30 06:29:44;;;;;;;13.48;8.00;;;8.70;99.90;;;;;;4978583;28;20074;-70
2022/04/30 06:32:09;;;;;;;11.40;7.63;;;8.70;99.90;;;;;;4978637;28;20053;-71
2022/04/30 06:34:41;;;;;;;13.98;7.68;;;8.80;99.90;;;;;;5001614;28;20029;-74
2022/04/30 06:37:08;;;;;;;12.45;7.63;;;8.80;99.90;;;;;;5008359;28;20034;-73
2022/04/30 06:39:33;;;;;;;12.70;7.57;;;8.80;99.90;;;;;;5013845;28;20038;-72
2022/04/30 06:41:59;;;;;;;10.05;7.43;;;8.90;99.90;;;;;;5014348;28;20079;-70
2022/04/30 06:44:25;;;;;;;13.30;8.00;;;8.90;99.90;;;;;;5014180;28;20462;-74
2022/04/30 06:46:50;;;;;;;11.88;8.15;;;9.00;99.90;;;;;;5000542;28;20049;-70
2022/04/30 06:49:16;;;;;;;11.20;7.43;;;9.10;99.90;;;;;;4994387;28;20119;-71
2022/04/30 06:51:41;;;;;;;12.85;7.85;;;9.30;99.90;;;;;;4994496;28;20038;-72
2022/04/30 06:57:08;;;;;;;12.98;7.80;;;9.40;99.90;;;;;;4991753;28;20034;-70
2022/04/30 06:59:37;;;;;;;16.02;7.53;;;9.50;99.90;;;;;;4994067;28;20038;-71
2022/04/30 07:02:12;;;;;;;11.18;7.20;;;9.60;99.90;;;;;;4977693;28;20035;-70
2022/04/30 07:04:41;;;;;;;10.45;6.32;;;9.60;99.90;;;;;;4994161;28;20085;-70
2022/04/30 07:07:08;;;;;;;11.07;6.78;;;9.70;99.90;;;;;;4976308;28;20046;-70
2022/04/30 07:09:34;;;;;;;15.05;7.10;;;9.70;99.90;;;;;;4993864;28;20460;-71
2022/04/30 07:12:06;;;;;;;11.43;6.93;;;9.90;99.90;;;;;;4994315;28;20038;-71
2022/04/30 07:14:37;;;;;;;11.80;7.10;;;9.90;99.90;;;;;;4994246;28;20046;-70
2022/04/30 07:17:07;;;;;;;13.75;6.95;;;10.00;99.90;;;;;;4984277;28;20039;-69
2022/04/30 07:19:34;;;;;;;10.93;6.78;;;10.10;99.90;;;;;;4975093;28;20042;-70
2022/04/30 07:22:00;;;;;;;15.52;6.78;;;10.30;99.90;;;;;;4974643;28;20097;-69
2022/04/30 07:24:27;;;;;;;11.40;6.30;;;10.50;99.90;;;;;;4991210;28;20089;-71
2022/04/30 07:26:52;;;;;;;11.63;6.78;;;10.60;99.90;;;;;;4984580;28;20038;-73
2022/04/30 07:29:18;;;;;;;11.57;6.43;;;10.70;99.90;;;;;;4994351;28;20052;-70
2022/04/30 07:31:44;;;;;;;15.95;7.15;;;10.80;99.90;;;;;;4976300;28;20474;-71
2022/04/30 07:34:10;;;;;;;12.77;6.35;;;10.80;99.90;;;;;;4992442;28;20038;-70
2022/04/30 07:36:36;;;;;;;12.52;6.70;;;10.80;99.90;;;;;;4992299;28;20346;-71
2022/04/30 07:39:01;;;;;;;10.00;6.13;;;10.90;99.90;;;;;;4993885;28;20042;-71
2022/04/30 07:41:27;;;;;;;12.88;6.95;;;11.00;99.90;;;;;;4977863;28;20133;-68
2022/04/30 07:43:53;;;;;;;11.70;6.90;;;11.10;99.90;;;;;;4977444;28;20069;-68
2022/04/30 07:46:19;;;;;;;14.32;6.68;;;11.30;99.90;;;;;;4992225;28;20090;-68
2022/04/30 07:48:44;;;;;;;14.10;7.25;;;11.30;99.90;;;;;;4977267;28;20047;-68
2022/04/30 07:51:14;;;;;;;13.18;7.07;;;11.30;99.90;;;;;;4992933;28;20074;-69
2022/04/30 07:53:42;;;;;;;12.60;7.80;;;11.30;99.90;;;;;;4976845;28;20052;-69
2022/04/30 07:56:08;;;;;;;12.60;7.55;;;11.40;99.90;;;;;;4989661;28;20046;-69
2022/04/30 07:58:33;;;;;;;11.68;7.13;;;11.40;99.90;;;;;;4989706;28;20126;-69
2022/04/30 08:00:59;;;;;;;9.50;7.05;;;11.40;99.90;;;;;;4972813;28;20149;-69
2022/04/30 08:03:25;;;;;;;11.30;7.70;;;11.40;99.90;;;;;;4973354;28;20051;-70
2022/04/30 08:05:50;;;;;;;11.70;7.25;;;11.50;99.90;;;;;;4957518;28;20047;-71
2022/04/30 08:08:16;;;;;;;15.07;7.32;;;11.40;99.90;;;;;;4991848;28;20073;-70
2022/04/30 08:10:42;;;;;;;12.98;7.55;;;11.30;99.90;;;;;;4991936;28;20393;-70
2022/04/30 08:13:08;;;;;;;12.45;7.85;;;11.40;99.90;;;;;;4991761;28;20046;-69
2022/04/30 08:15:34;;;;;;;13.93;7.50;;;11.30;99.90;;;;;;4992735;28;20077;-70
2022/04/30 08:18:00;;;;;;;10.52;7.72;;;11.60;99.90;;;;;;4966892;28;20099;-69
2022/04/30 08:20:26;;;;;;;10.10;7.30;;;11.50;99.90;;;;;;4993021;28;20129;-71
2022/04/30 08:22:51;;;;;;;12.55;9.65;;;11.60;99.90;;;;;;4991743;28;20046;-70
2022/04/30 08:25:17;;;;;;;13.77;8.18;;;11.60;99.90;;;;;;4990881;28;20471;-68
2022/04/30 08:27:44;;;;;;;10.65;7.10;;;11.70;99.90;;;;;;4989789;28;20152;-71
2022/04/30 08:30:10;;;;;;;10.38;6.90;;;11.70;99.90;;;;;;5008663;28;20097;-71
2022/04/30 08:32:36;;;;;;;14.85;9.75;;;11.80;99.90;;;;;;4989461;28;20121;-69
2022/04/30 08:35:03;;;;;;;10.60;7.25;;;12.10;99.90;;;;;;4990631;28;20467;-68
2022/04/30 08:37:29;;;;;;;15.82;9.88;;;12.20;99.90;;;;;;4978697;28;20054;-69
2022/04/30 08:39:55;;;;;;;10.73;6.72;;;12.40;99.90;;;;;;4971969;28;20050;-69
2022/04/30 08:42:23;;;;;;;8.50;5.97;;;12.80;99.90;;;;;;4987620;28;20054;-69
2022/04/30 08:44:49;;;;;;;11.55;6.30;;;12.70;99.90;;;;;;4975851;28;20038;-68
2022/04/30 08:47:15;;;;;;;9.15;4.80;;;12.60;99.90;;;;;;4981708;28;20054;-70
2022/04/30 08:49:42;;;;;;;11.45;4.63;;;12.70;99.90;;;;;;4989924;28;20046;-70
2022/04/30 08:52:12;;;;;;;9.98;5.60;;;12.70;99.90;;;;;;4991120;28;20051;-68
2022/04/30 08:54:41;;;;;;;9.48;5.75;;;12.50;99.90;;;;;;4990319;28;20038;-69
2022/04/30 08:57:07;;;;;;;8.82;6.07;;;12.40;99.90;;;;;;4990651;28;20371;-73
2022/04/30 08:59:33;;;;;;;9.20;6.10;;;12.30;99.90;;;;;;4991636;28;20439;-68
2022/04/30 09:02:00;;;;;;;11.18;5.90;;;12.10;99.90;;;;;;4992497;28;20530;-69
2022/04/30 09:04:26;;;;;;;12.68;6.05;;;12.20;99.90;;;;;;4993070;28;20050;-70
2022/04/30 09:06:55;;;;;;;9.10;6.05;;;12.40;99.90;;;;;;4978882;28;20357;-72
2022/04/30 09:09:28;;;;;;;10.55;6.05;;;12.40;99.90;;;;;;4990580;28;20042;-70
2022/04/30 09:12:04;;;;;;;9.98;6.43;;;12.30;99.90;;;;;;4993060;28;20038;-70
2022/04/30 09:14:30;;;;;;;13.63;6.78;;;12.10;99.90;;;;;;4992509;28;20490;-69
2022/04/30 09:17:05;;;;;;;10.60;6.20;;;12.40;99.90;;;;;;4992124;28;20043;-70
2022/04/30 09:19:44;;;;;;;10.80;6.30;;;12.40;99.90;;;;;;4979088;28;20081;-69
2022/04/30 09:22:10;;;;;;;12.02;6.22;;;12.40;99.90;;;;;;4980395;28;20077;-70
2022/04/30 09:24:50;;;;;;;11.50;6.55;;;12.40;99.90;;;;;;4995543;28;20124;-69
2022/04/30 09:27:17;;;;;;;9.25;6.00;;;12.40;99.90;;;;;;4993738;28;20065;-68
2022/04/30 09:29:43;;;;;;;12.93;6.50;;;12.40;99.90;;;;;;4977828;28;20096;-71
2022/04/30 09:32:19;;;;;;;11.32;6.38;;;12.40;99.90;;;;;;4995963;28;20093;-72
2022/04/30 09:37:43;;;;;;;18.10;6.85;;;12.50;99.90;;;;;;4993307;28;20049;-68
2022/04/30 09:40:15;;;;;;;10.52;6.20;;;12.40;99.90;;;;;;4990610;28;20078;-68
2022/04/30 09:42:43;;;;;;;10.25;6.00;;;12.40;99.90;;;;;;4994787;28;20046;-68
2022/04/30 09:45:20;;;;;;;9.27;5.90;;;12.20;99.90;;;;;;4978151;28;20034;-69
2022/04/30 09:47:47;;;;;;;12.23;6.22;;;12.20;99.90;;;;;;4963381;28;20091;-68
2022/04/30 09:55:42;;;;;;;9.52;5.72;;;11.80;99.90;;;;;;4975241;28;20046;-69
2022/04/30 09:58:10;;;;;;;9.63;5.72;;;11.80;99.90;;;;;;4994383;28;20050;-68
2022/04/30 10:00:36;;;;;;;10.02;6.47;;;11.70;99.90;;;;;;4995631;28;20042;-69
2022/04/30 10:03:02;;;;;;;9.75;6.38;;;11.70;99.90;;;;;;4995377;28;20042;-69
2022/04/30 10:05:30;;;;;;;9.55;6.15;;;11.60;99.90;;;;;;4995234;28;20049;-68
2022/04/30 10:07:56;;;;;;;12.35;6.22;;;11.60;99.90;;;;;;5008636;28;20053;-69
2022/04/30 10:10:31;;;;;;;10.23;7.00;;;11.60;99.90;;;;;;4995787;28;20038;-71
2022/04/30 10:13:15;;;;;;;11.70;7.03;;;11.60;99.90;;;;;;4979133;28;20387;-70
2022/04/30 10:15:50;;;;;;;8.88;6.13;;;11.50;99.90;;;;;;4995486;28;20034;-70
2022/04/30 10:18:18;;;;;;;10.07;6.28;;;11.50;99.90;;;;;;4960858;28;20129;-71
2022/04/30 10:20:59;;;;;;;9.05;5.95;;;11.50;99.90;;;;;;4959999;28;20048;-70
2022/04/30 10:23:26;;;;;;;10.63;6.28;;;11.50;99.90;;;;;;4975777;28;20146;-70
2022/04/30 10:25:54;;;;;;;8.02;5.53;;;11.60;99.90;;;;;;4975529;28;20133;-68
2022/04/30 10:28:23;;;;;;;11.70;6.35;;;11.70;99.90;;;;;;4991490;28;20053;-69
2022/04/30 10:31:04;;;;;;;9.60;6.03;;;11.80;99.90;;;;;;4975035;28;20155;-69
2022/04/30 10:33:32;;;;;;;9.38;6.35;;;11.90;99.90;;;;;;4959679;28;20050;-70
2022/04/30 10:36:09;;;;;;;9.18;6.03;;;11.90;99.90;;;;;;4976199;28;20345;-69
2022/04/30 10:38:36;;;;;;;12.15;6.30;;;12.00;99.90;;;;;;4992015;28;20074;-70
2022/04/30 10:41:04;;;;;;;11.32;6.28;;;11.90;99.90;;;;;;4959595;28;20038;-69
2022/04/30 10:43:35;;;;;;;9.40;6.22;;;12.00;99.90;;;;;;4975455;28;20054;-69
2022/04/30 10:46:17;;;;;;;10.30;6.22;;;12.20;99.90;;;;;;4977891;28;20042;-70
2022/04/30 10:48:43;;;;;;;11.48;6.70;;;12.30;99.90;;;;;;4962170;28;20595;-70
2022/04/30 10:51:11;;;;;;;10.80;6.25;;;12.40;99.90;;;;;;4962822;28;20441;-71
2022/04/30 10:53:43;;;;;;;10.55;6.20;;;12.50;99.90;;;;;;4962750;28;20400;-70
2022/04/30 10:56:10;;;;;;;10.20;5.50;;;12.70;99.90;;;;;;4963342;28;20046;-72
2022/04/30 10:58:37;;;;;;;8.30;5.25;;;12.70;99.90;;;;;;4997763;28;20086;-70
2022/04/30 11:01:16;;;;;;;8.57;5.18;;;12.80;99.90;;;;;;4981475;28;20127;-70
2022/04/30 11:03:45;;;;;;;11.27;5.63;;;13.00;99.90;;;;;;4981495;28;20045;-71
2022/04/30 11:06:12;;;;;;;9.57;5.45;;;13.10;99.90;;;;;;4995424;28;20045;-71
2022/04/30 11:08:38;;;;;;;9.10;5.30;;;13.20;99.90;;;;;;4978232;28;20053;-70
2022/04/30 11:11:04;;;;;;;9.80;5.38;;;13.20;99.90;;;;;;4977960;28;20364;-70
2022/04/30 11:13:30;;;;;;;9.43;5.30;;;13.10;99.90;;;;;;4978473;28;20038;-70
2022/04/30 11:15:59;;;;;;;10.27;5.03;;;13.10;99.90;;;;;;4977681;28;20048;-70
2022/04/30 11:18:25;;;;;;;13.60;5.90;;;13.00;99.90;;;;;;4977733;28;20042;-71
2022/04/30 11:20:59;;;;;;;8.32;5.18;;;13.10;99.90;;;;;;4978014;28;20052;-70
2022/04/30 11:23:25;;;;;;;8.88;5.20;;;13.20;99.90;;;;;;4978037;28;20050;-70
2022/04/30 11:25:50;;;;;;;8.15;4.75;;;13.40;99.90;;;;;;4961593;28;20053;-70
2022/04/30 11:28:16;;;;;;;10.63;5.13;;;13.30;99.90;;;;;;4978441;28;20089;-70
2022/04/30 11:30:45;;;;;;;9.80;4.60;;;13.50;99.90;;;;;;4977693;28;20043;-71
2022/04/30 11:33:12;;;;;;;8.02;4.40;;;13.40;99.90;;;;;;4977626;28;20093;-70
2022/04/30 11:35:38;;;;;;;7.70;4.45;;;13.50;99.90;;;;;;4977593;28;20081;-70
2022/04/30 11:38:08;;;;;;;11.80;4.72;;;13.40;99.90;;;;;;4994522;28;20095;-71
2022/04/30 11:40:34;;;;;;;10.20;4.65;;;13.30;99.90;;;;;;4997169;28;20042;-70
2022/04/30 11:43:02;;;;;;;7.13;4.38;;;13.40;99.90;;;;;;4996897;28;20056;-70
2022/04/30 11:45:32;;;;;;;6.88;4.30;;;13.40;99.90;;;;;;4994135;28;20042;-70
2022/04/30 11:48:03;;;;;;;7.30;4.20;;;13.30;99.90;;;;;;4991735;28;20418;-70
2022/04/30 11:50:30;;;;;;;8.57;4.20;;;13.30;99.90;;;;;;4992394;28;20069;-70
2022/04/30 11:52:56;;;;;;;8.15;4.10;;;13.40;99.90;;;;;;4992316;28;20111;-72
2022/04/30 11:55:22;;;;;;;7.18;3.88;;;13.30;99.90;;;;;;4977210;28;20038;-70
2022/04/30 11:57:48;;;;;;;5.65;3.58;;;13.50;99.90;;;;;;4979028;28;20117;-71
2022/04/30 12:00:19;;;;;;;6.20;3.70;;;13.50;99.90;;;;;;4957958;28;20042;-70
2022/04/30 12:02:49;;;;;;;7.13;4.18;;;13.50;99.90;;;;;;4957824;28;20078;-71
2022/04/30 12:05:15;;;;;;;10.15;4.60;;;13.40;99.90;;;;;;4973533;28;20479;-71
2022/04/30 12:07:44;;;;;;;8.70;4.78;;;13.30;99.90;;;;;;4988502;28;20045;-71
2022/04/30 12:10:28;;;;;;;8.25;5.35;;;13.60;99.90;;;;;;4993453;28;20039;-71
2022/04/30 12:12:54;;;;;;;13.70;4.60;;;13.50;99.90;;;;;;4993404;28;20074;-70
2022/04/30 12:15:28;;;;;;;9.73;4.50;;;13.50;99.90;;;;;;4993454;28;20359;-70
2022/04/30 12:26:25;;;;;;;6.90;3.42;;;13.70;99.90;;;;;;4989484;28;20399;-71
2022/04/30 12:28:52;;;;;;;8.15;3.75;;;13.70;99.90;;;;;;4957893;28;20043;-70
2022/04/30 12:31:19;;;;;;;5.80;3.63;;;13.80;99.90;;;;;;4957729;28;20035;-70
2022/04/30 12:33:48;;;;;;;6.90;4.00;;;13.90;99.90;;;;;;4973753;28;20074;-70
2022/04/30 12:36:16;;;;;;;7.03;3.75;;;13.90;99.90;;;;;;4958668;28;20081;-70
2022/04/30 12:38:52;;;;;;;9.13;4.05;;;14.00;99.90;;;;;;4993277;28;20468;-70
2022/04/30 12:41:18;;;;;;;6.38;3.80;;;14.20;99.90;;;;;;5009550;28;20046;-70
2022/04/30 12:43:44;;;;;;;8.38;4.45;;;14.20;99.90;;;;;;4993432;28;20061;-68
2022/04/30 12:46:19;;;;;;;7.95;4.22;;;14.20;99.90;;;;;;4991137;28;20070;-67
2022/04/30 12:48:44;;;;;;;7.45;3.85;;;14.30;99.90;;;;;;4957604;28;20055;-68
2022/04/30 12:51:10;;;;;;;17.33;4.80;;;14.20;99.90;;;;;;4957555;28;20129;-68
2022/04/30 12:53:36;;;;;;;7.63;4.40;;;14.40;99.90;;;;;;4958761;28;20030;-68
2022/04/30 12:56:02;;;;;;;6.55;4.07;;;14.50;99.90;;;;;;4977047;28;20035;-68
2022/04/30 12:58:27;;;;;;;7.68;4.25;;;14.50;99.90;;;;;;4977716;28;20039;-67
2022/04/30 13:00:54;;;;;;;8.45;4.50;;;14.40;99.90;;;;;;4977642;28;20077;-70
2022/04/30 13:03:20;;;;;;;7.18;4.28;;;14.30;99.90;;;;;;4961325;28;20579;-70
2022/04/30 13:05:46;;;;;;;8.02;4.50;;;14.30;99.90;;;;;;4960779;28;20129;-71
2022/04/30 13:08:11;;;;;;;7.60;4.55;;;14.20;99.90;;;;;;4977753;28;20173;-67
2022/04/30 13:13:34;;;;;;;8.75;4.20;;;14.10;99.90;;;;;;4996494;28;20479;-67
2022/04/30 13:16:08;;;;;;;6.13;4.18;;;14.00;99.90;;;;;;4996190;28;20129;-68
2022/04/30 13:18:37;;;;;;;6.07;3.58;;;14.10;99.90;;;;;;4977287;28;20429;-68
2022/04/30 13:21:03;;;;;;;5.97;3.75;;;14.10;99.90;;;;;;4977174;28;20130;-69
2022/04/30 13:23:29;;;;;;;6.88;4.13;;;14.00;99.90;;;;;;4976966;28;20538;-68
2022/04/30 13:25:55;;;;;;;7.50;4.53;;;13.90;99.90;;;;;;4960335;28;20049;-68
2022/04/30 13:28:21;;;;;;;8.43;4.65;;;13.90;99.90;;;;;;4977422;28;20038;-68